sensor_id;sensor_type;location;lat;lon;timestamp;pressure;altitude;pressure_sealevel;temperature;humidity
6096;BME280;25081;42.698;23.298;2022-12-18T00:01:13;96024.20;;;5.90;93.28
6096;BME280;25081;42.698;23.298;2022-12-18T00:03:16;96025.83;;;5.99;93.29
6096;BME280;25081;42.698;23.298;2022-12-18T00:05:27;96033.77;;;5.99;92.98
6096;BME280;25081;42.698;23.298;2022-12-18T00:07:37;96037.06;;;5.97;92.31
6096;BME280;25081;42.698;23.298;2022-12-18T00:09:48;96042.88;;;5.77;92.42
6096;BME280;25081;42.698;23.298;2022-12-18T00:11:58;96045.39;;;5.66;92.60
6096;BME280;25081;42.698;23.298;2022-12-18T00:14:09;96042.44;;;5.61;93.13
6096;BME280;25081;42.698;23.298;2022-12-18T00:16:21;96038.47;;;5.61;93.24
6096;BME280;25081;42.698;23.298;2022-12-18T00:18:30;96040.95;;;5.54;93.45
6096;BME280;25081;42.698;23.298;2022-12-18T00:20:41;96043.72;;;5.69;93.70
6096;BME280;25081;42.698;23.298;2022-12-18T00:22:51;96041.77;;;5.63;93.95
6096;BME280;25081;42.698;23.298;2022-12-18T00:25:02;96054.97;;;5.67;93.04
6096;BME280;25081;42.698;23.298;2022-12-18T00:27:12;96058.14;;;5.54;92.68
6096;BME280;25081;42.698;23.298;2022-12-18T00:29:22;96059.14;;;5.53;92.79
6096;BME280;25081;42.698;23.298;2022-12-18T00:31:33;96054.02;;;5.52;92.81
6096;BME280;25081;42.698;23.298;2022-12-18T00:33:44;96056.66;;;5.48;93.54
6096;BME280;25081;42.698;23.298;2022-12-18T00:35:54;96065.41;;;5.40;93.17
6096;BME280;25081;42.698;23.298;2022-12-18T00:38:04;96065.25;;;5.37;93.23
6096;BME280;25081;42.698;23.298;2022-12-18T00:40:15;96070.56;;;5.33;92.99
6096;BME280;25081;42.698;23.298;2022-12-18T00:42:25;96065.25;;;5.37;92.90
6096;BME280;25081;42.698;23.298;2022-12-18T00:44:53;96065.75;;;5.45;92.80
6096;BME280;25081;42.698;23.298;2022-12-18T00:47:04;96069.39;;;5.28;92.45
6096;BME280;25081;42.698;23.298;2022-12-18T00:49:14;96073.18;;;5.09;92.69
6096;BME280;25081;42.698;23.298;2022-12-18T00:51:25;96076.67;;;5.13;93.55
6096;BME280;25081;42.698;23.298;2022-12-18T00:53:35;96086.08;;;5.04;92.91
6096;BME280;25081;42.698;23.298;2022-12-18T00:55:46;96079.97;;;5.03;93.23
6096;BME280;25081;42.698;23.298;2022-12-18T00:57:56;96082.44;;;5.05;92.75
6096;BME280;25081;42.698;23.298;2022-12-18T01:00:09;96085.41;;;5.10;92.66
6096;BME280;25081;42.698;23.298;2022-12-18T01:02:19;96090.87;;;5.12;92.20
6096;BME280;25081;42.698;23.298;2022-12-18T01:04:31;96096.80;;;5.10;92.11
6096;BME280;25081;42.698;23.298;2022-12-18T01:06:42;96089.04;;;5.09;92.38
6096;BME280;25081;42.698;23.298;2022-12-18T01:08:52;96095.17;;;5.13;92.50
6096;BME280;25081;42.698;23.298;2022-12-18T01:11:07;96091.52;;;5.06;92.54
6096;BME280;25081;42.698;23.298;2022-12-18T01:13:17;96094.31;;;4.97;92.36
6096;BME280;25081;42.698;23.298;2022-12-18T01:15:28;96102.55;;;4.89;92.51
6096;BME280;25081;42.698;23.298;2022-12-18T01:17:38;96105.02;;;4.79;92.83
6096;BME280;25081;42.698;23.298;2022-12-18T01:19:49;96107.02;;;4.85;93.00
6096;BME280;25081;42.698;23.298;2022-12-18T01:21:59;96107.84;;;4.85;92.86
6096;BME280;25081;42.698;23.298;2022-12-18T01:24:11;96108.17;;;4.86;93.33
6096;BME280;25081;42.698;23.298;2022-12-18T01:26:21;96109.68;;;4.93;93.08
6096;BME280;25081;42.698;23.298;2022-12-18T01:28:31;96111.47;;;4.88;92.45
6096;BME280;25081;42.698;23.298;2022-12-18T01:30:42;96107.02;;;4.85;92.41
6096;BME280;25081;42.698;23.298;2022-12-18T01:32:52;96105.72;;;4.93;92.35
6096;BME280;25081;42.698;23.298;2022-12-18T01:35:03;96112.13;;;4.91;91.95
6096;BME280;25081;42.698;23.298;2022-12-18T01:37:13;96115.91;;;4.76;92.31
6096;BME280;25081;42.698;23.298;2022-12-18T01:39:24;96118.52;;;4.68;92.86
6096;BME280;25081;42.698;23.298;2022-12-18T01:41:34;96128.09;;;4.65;92.91
6096;BME280;25081;42.698;23.298;2022-12-18T01:46:50;96130.21;;;4.61;92.96
6096;BME280;25081;42.698;23.298;2022-12-18T01:49:01;96123.94;;;4.58;93.25
6096;BME280;25081;42.698;23.298;2022-12-18T01:51:11;96125.91;;;4.56;92.77
6096;BME280;25081;42.698;23.298;2022-12-18T01:53:22;96125.72;;;4.45;93.00
6096;BME280;25081;42.698;23.298;2022-12-18T01:55:35;96130.47;;;4.42;93.16
6096;BME280;25081;42.698;23.298;2022-12-18T01:57:43;96139.91;;;4.48;93.12
6096;BME280;25081;42.698;23.298;2022-12-18T01:59:55;96133.80;;;4.48;92.87
6096;BME280;25081;42.698;23.298;2022-12-18T02:02:04;96131.33;;;4.46;92.80
6096;BME280;25081;42.698;23.298;2022-12-18T02:04:22;96133.89;;;4.34;92.67
6096;BME280;25081;42.698;23.298;2022-12-18T02:06:33;96135.08;;;4.36;92.47
6096;BME280;25081;42.698;23.298;2022-12-18T02:08:45;96131.08;;;4.31;92.97
6096;BME280;25081;42.698;23.298;2022-12-18T02:10:59;96138.88;;;4.37;92.72
6096;BME280;25081;42.698;23.298;2022-12-18T02:13:10;96141.80;;;4.26;92.71
6096;BME280;25081;42.698;23.298;2022-12-18T02:15:21;96133.51;;;4.21;92.90
6096;BME280;25081;42.698;23.298;2022-12-18T02:17:30;96148.02;;;4.17;93.15
6096;BME280;25081;42.698;23.298;2022-12-18T02:19:51;96154.28;;;4.16;93.26
6096;BME280;25081;42.698;23.298;2022-12-18T02:22:00;96120.22;;;4.05;92.91
6096;BME280;25081;42.698;23.298;2022-12-18T02:24:16;96156.55;;;4.11;92.72
6096;BME280;25081;42.698;23.298;2022-12-18T02:26:27;96159.69;;;4.14;92.97
6096;BME280;25081;42.698;23.298;2022-12-18T02:28:39;96159.23;;;4.19;93.00
6096;BME280;25081;42.698;23.298;2022-12-18T02:30:48;96167.66;;;4.22;92.93
6096;BME280;25081;42.698;23.298;2022-12-18T02:32:58;96159.39;;;4.17;93.05
6096;BME280;25081;42.698;23.298;2022-12-18T02:35:12;96159.90;;;4.21;93.21
6096;BME280;25081;42.698;23.298;2022-12-18T02:37:20;96163.53;;;4.24;93.08
6096;BME280;25081;42.698;23.298;2022-12-18T02:39:30;96164.23;;;4.26;92.70
6096;BME280;25081;42.698;23.298;2022-12-18T02:41:41;96167.64;;;4.18;92.68
6096;BME280;25081;42.698;23.298;2022-12-18T02:43:55;96160.40;;;4.24;93.05
6096;BME280;25081;42.698;23.298;2022-12-18T02:46:33;96170.50;;;4.29;93.06
6096;BME280;25081;42.698;23.298;2022-12-18T02:48:42;96167.36;;;4.25;93.25
6096;BME280;25081;42.698;23.298;2022-12-18T02:50:55;96178.88;;;4.24;92.69
6096;BME280;25081;42.698;23.298;2022-12-18T02:53:09;96177.38;;;4.22;93.29
6096;BME280;25081;42.698;23.298;2022-12-18T02:55:21;96178.38;;;4.21;93.31
6096;BME280;25081;42.698;23.298;2022-12-18T02:57:34;96179.34;;;4.16;93.64
6096;BME280;25081;42.698;23.298;2022-12-18T02:59:47;96169.79;;;4.19;93.46
6096;BME280;25081;42.698;23.298;2022-12-18T03:01:57;96172.28;;;4.24;93.26
6096;BME280;25081;42.698;23.298;2022-12-18T03:04:08;96169.89;;;4.35;93.01
6096;BME280;25081;42.698;23.298;2022-12-18T03:06:20;96170.71;;;4.36;92.57
6096;BME280;25081;42.698;23.298;2022-12-18T03:08:31;96169.69;;;4.33;92.19
6096;BME280;25081;42.698;23.298;2022-12-18T03:10:41;96169.63;;;4.20;92.84
6096;BME280;25081;42.698;23.298;2022-12-18T03:12:52;96180.17;;;4.16;92.97
6096;BME280;25081;42.698;23.298;2022-12-18T03:15:04;96179.47;;;4.10;93.20
6096;BME280;25081;42.698;23.298;2022-12-18T03:17:14;96185.39;;;4.08;93.29
6096;BME280;25081;42.698;23.298;2022-12-18T03:19:25;96181.11;;;4.07;92.93
6096;BME280;25081;42.698;23.298;2022-12-18T03:21:35;96179.58;;;4.05;92.73
6096;BME280;25081;42.698;23.298;2022-12-18T03:23:46;96194.47;;;4.10;93.04
6096;BME280;25081;42.698;23.298;2022-12-18T03:25:56;96189.84;;;4.08;93.19
6096;BME280;25081;42.698;23.298;2022-12-18T03:28:07;96192.93;;;4.03;92.91
6096;BME280;25081;42.698;23.298;2022-12-18T03:30:18;96198.88;;;4.05;93.46
6096;BME280;25081;42.698;23.298;2022-12-18T03:32:28;96203.48;;;4.03;93.26
6096;BME280;25081;42.698;23.298;2022-12-18T03:34:39;96209.30;;;4.07;92.73
6096;BME280;25081;42.698;23.298;2022-12-18T03:36:49;96208.17;;;4.13;92.82
6096;BME280;25081;42.698;23.298;2022-12-18T03:39:00;96209.20;;;4.16;92.27
6096;BME280;25081;42.698;23.298;2022-12-18T03:41:15;96210.65;;;4.15;91.55
6096;BME280;25081;42.698;23.298;2022-12-18T03:43:28;96209.47;;;4.09;90.28
6096;BME280;25081;42.698;23.298;2022-12-18T03:45:40;96216.48;;;3.96;90.38
6096;BME280;25081;42.698;23.298;2022-12-18T03:47:50;96217.59;;;3.94;90.10
6096;BME280;25081;42.698;23.298;2022-12-18T03:50:02;96226.14;;;3.88;90.01
6096;BME280;25081;42.698;23.298;2022-12-18T03:52:10;96236.61;;;3.97;90.03
6096;BME280;25081;42.698;23.298;2022-12-18T03:54:21;96237.61;;;4.00;89.57
6096;BME280;25081;42.698;23.298;2022-12-18T03:56:32;96241.45;;;4.06;89.57
6096;BME280;25081;42.698;23.298;2022-12-18T03:58:42;96238.37;;;3.93;89.47
6096;BME280;25081;42.698;23.298;2022-12-18T04:00:52;96240.49;;;3.89;89.80
6096;BME280;25081;42.698;23.298;2022-12-18T04:03:03;96240.00;;;3.90;89.91
6096;BME280;25081;42.698;23.298;2022-12-18T04:05:13;96241.56;;;3.79;90.07
6096;BME280;25081;42.698;23.298;2022-12-18T04:07:24;96246.17;;;3.77;90.60
6096;BME280;25081;42.698;23.298;2022-12-18T04:09:34;96247.69;;;3.83;90.71
6096;BME280;25081;42.698;23.298;2022-12-18T04:11:45;96239.77;;;3.83;90.37
6096;BME280;25081;42.698;23.298;2022-12-18T04:13:57;96245.36;;;3.80;89.84
6096;BME280;25081;42.698;23.298;2022-12-18T04:16:08;96256.91;;;3.83;90.20
6096;BME280;25081;42.698;23.298;2022-12-18T04:18:19;96251.97;;;3.84;89.58
6096;BME280;25081;42.698;23.298;2022-12-18T04:20:29;96262.19;;;3.83;88.94
6096;BME280;25081;42.698;23.298;2022-12-18T04:22:40;96264.55;;;3.86;89.02
6096;BME280;25081;42.698;23.298;2022-12-18T04:24:50;96271.34;;;3.93;88.42
6096;BME280;25081;42.698;23.298;2022-12-18T04:27:01;96268.96;;;3.86;88.07
6096;BME280;25081;42.698;23.298;2022-12-18T04:29:11;96270.59;;;3.83;87.82
6096;BME280;25081;42.698;23.298;2022-12-18T04:31:22;96273.98;;;3.75;87.96
6096;BME280;25081;42.698;23.298;2022-12-18T04:33:32;96277.58;;;3.70;88.01
6096;BME280;25081;42.698;23.298;2022-12-18T04:35:42;96285.56;;;3.78;88.08
6096;BME280;25081;42.698;23.298;2022-12-18T04:37:53;96287.40;;;3.82;87.75
6096;BME280;25081;42.698;23.298;2022-12-18T04:40:04;96292.34;;;3.81;87.41
6096;BME280;25081;42.698;23.298;2022-12-18T04:42:15;96299.50;;;3.88;87.01
6096;BME280;25081;42.698;23.298;2022-12-18T04:44:25;96300.77;;;3.84;87.20
6096;BME280;25081;42.698;23.298;2022-12-18T04:46:36;96300.61;;;3.86;86.93
6096;BME280;25081;42.698;23.298;2022-12-18T04:48:47;96304.44;;;3.69;85.54
6096;BME280;25081;42.698;23.298;2022-12-18T04:50:57;96306.92;;;3.71;86.13
6096;BME280;25081;42.698;23.298;2022-12-18T04:53:08;96310.05;;;3.70;85.52
6096;BME280;25081;42.698;23.298;2022-12-18T04:55:18;96313.84;;;3.72;85.57
6096;BME280;25081;42.698;23.298;2022-12-18T04:57:28;96320.77;;;3.73;85.03
6096;BME280;25081;42.698;23.298;2022-12-18T04:59:39;96321.85;;;3.66;84.99
6096;BME280;25081;42.698;23.298;2022-12-18T05:01:49;96323.70;;;3.52;84.84
6096;BME280;25081;42.698;23.298;2022-12-18T05:04:00;96328.88;;;3.58;85.02
6096;BME280;25081;42.698;23.298;2022-12-18T05:06:10;96326.09;;;3.59;84.59
6096;BME280;25081;42.698;23.298;2022-12-18T05:08:21;96332.62;;;3.55;84.77
6096;BME280;25081;42.698;23.298;2022-12-18T05:10:31;96330.98;;;3.40;85.56
6096;BME280;25081;42.698;23.298;2022-12-18T05:12:41;96334.73;;;3.52;85.76
6096;BME280;25081;42.698;23.298;2022-12-18T05:15:09;96334.33;;;3.47;85.30
6096;BME280;25081;42.698;23.298;2022-12-18T05:17:20;96340.31;;;3.49;85.71
6096;BME280;25081;42.698;23.298;2022-12-18T05:19:30;96346.70;;;3.32;86.21
6096;BME280;25081;42.698;23.298;2022-12-18T05:21:40;96341.33;;;3.24;86.82
6096;BME280;25081;42.698;23.298;2022-12-18T05:23:51;96352.95;;;3.31;87.03
6096;BME280;25081;42.698;23.298;2022-12-18T05:26:02;96359.88;;;3.32;86.69
6096;BME280;25081;42.698;23.298;2022-12-18T05:28:12;96355.30;;;3.48;86.87
6096;BME280;25081;42.698;23.298;2022-12-18T05:30:22;96360.14;;;3.57;86.40
6096;BME280;25081;42.698;23.298;2022-12-18T05:32:33;96362.12;;;3.41;86.23
6096;BME280;25081;42.698;23.298;2022-12-18T05:34:43;96362.31;;;3.43;86.49
6096;BME280;25081;42.698;23.298;2022-12-18T05:36:53;96372.47;;;3.52;86.27
6096;BME280;25081;42.698;23.298;2022-12-18T05:39:04;96371.89;;;3.58;85.40
6096;BME280;25081;42.698;23.298;2022-12-18T05:41:14;96373.00;;;3.42;85.39
6096;BME280;25081;42.698;23.298;2022-12-18T05:43:25;96380.58;;;3.41;84.97
6096;BME280;25081;42.698;23.298;2022-12-18T05:47:40;96386.38;;;3.44;84.49
6096;BME280;25081;42.698;23.298;2022-12-18T05:49:50;96396.92;;;3.44;84.66
6096;BME280;25081;42.698;23.298;2022-12-18T05:52:01;96394.62;;;3.45;84.32
6096;BME280;25081;42.698;23.298;2022-12-18T05:54:11;96391.22;;;3.49;83.62
6096;BME280;25081;42.698;23.298;2022-12-18T05:56:22;96389.88;;;3.35;84.27
6096;BME280;25081;42.698;23.298;2022-12-18T05:58:32;96391.76;;;3.39;84.22
6096;BME280;25081;42.698;23.298;2022-12-18T06:00:43;96390.73;;;3.50;84.30
6096;BME280;25081;42.698;23.298;2022-12-18T06:02:53;96406.11;;;3.40;84.35
6096;BME280;25081;42.698;23.298;2022-12-18T06:05:04;96409.52;;;3.51;83.86
6096;BME280;25081;42.698;23.298;2022-12-18T06:07:14;96409.01;;;3.37;83.96
6096;BME280;25081;42.698;23.298;2022-12-18T06:09:25;96420.68;;;3.35;84.37
6096;BME280;25081;42.698;23.298;2022-12-18T06:11:36;96414.95;;;3.26;84.65
6096;BME280;25081;42.698;23.298;2022-12-18T06:13:46;96411.19;;;3.38;84.48
6096;BME280;25081;42.698;23.298;2022-12-18T06:15:56;96408.51;;;3.48;84.19
6096;BME280;25081;42.698;23.298;2022-12-18T06:18:07;96411.91;;;3.44;83.89
6096;BME280;25081;42.698;23.298;2022-12-18T06:20:17;96412.84;;;3.39;84.65
6096;BME280;25081;42.698;23.298;2022-12-18T06:22:28;96421.62;;;3.43;84.51
6096;BME280;25081;42.698;23.298;2022-12-18T06:24:38;96424.55;;;3.40;84.49
6096;BME280;25081;42.698;23.298;2022-12-18T06:26:49;96412.55;;;3.42;84.30
6096;BME280;25081;42.698;23.298;2022-12-18T06:28:59;96418.34;;;3.45;83.98
6096;BME280;25081;42.698;23.298;2022-12-18T06:31:10;96425.08;;;3.44;84.22
6096;BME280;25081;42.698;23.298;2022-12-18T06:33:20;96419.51;;;3.47;84.25
6096;BME280;25081;42.698;23.298;2022-12-18T06:35:30;96422.36;;;3.50;84.21
6096;BME280;25081;42.698;23.298;2022-12-18T06:37:41;96418.48;;;3.44;83.86
6096;BME280;25081;42.698;23.298;2022-12-18T06:39:51;96429.97;;;3.53;84.20
6096;BME280;25081;42.698;23.298;2022-12-18T06:42:01;96433.69;;;3.60;84.29
6096;BME280;25081;42.698;23.298;2022-12-18T06:44:12;96440.95;;;3.76;85.37
6096;BME280;25081;42.698;23.298;2022-12-18T06:46:22;96444.56;;;3.74;83.60
6096;BME280;25081;42.698;23.298;2022-12-18T06:48:33;96447.94;;;3.53;82.57
6096;BME280;25081;42.698;23.298;2022-12-18T06:50:44;96450.72;;;3.65;83.05
6096;BME280;25081;42.698;23.298;2022-12-18T06:52:54;96450.53;;;3.63;82.91
6096;BME280;25081;42.698;23.298;2022-12-18T06:55:06;96451.20;;;3.65;82.47
6096;BME280;25081;42.698;23.298;2022-12-18T06:57:17;96461.12;;;3.53;81.88
6096;BME280;25081;42.698;23.298;2022-12-18T06:59:27;96456.97;;;3.51;81.10
6096;BME280;25081;42.698;23.298;2022-12-18T07:01:38;96459.83;;;3.67;80.51
6096;BME280;25081;42.698;23.298;2022-12-18T07:03:51;96460.39;;;3.61;79.67
6096;BME280;25081;42.698;23.298;2022-12-18T07:06:01;96467.22;;;3.54;79.48
6096;BME280;25081;42.698;23.298;2022-12-18T07:08:11;96462.50;;;3.57;79.76
6096;BME280;25081;42.698;23.298;2022-12-18T07:10:22;96463.82;;;3.57;79.55
6096;BME280;25081;42.698;23.298;2022-12-18T07:12:32;96468.95;;;3.59;79.86
6096;BME280;25081;42.698;23.298;2022-12-18T07:14:42;96466.65;;;3.36;80.32
6096;BME280;25081;42.698;23.298;2022-12-18T07:16:53;96475.76;;;3.38;81.71
6096;BME280;25081;42.698;23.298;2022-12-18T07:19:03;96472.34;;;3.41;81.44
6096;BME280;25081;42.698;23.298;2022-12-18T07:21:14;96469.28;;;3.36;81.99
6096;BME280;25081;42.698;23.298;2022-12-18T07:23:24;96480.95;;;3.34;82.22
6096;BME280;25081;42.698;23.298;2022-12-18T07:25:35;96479.00;;;3.36;81.74
6096;BME280;25081;42.698;23.298;2022-12-18T07:27:46;96478.32;;;3.34;81.78
6096;BME280;25081;42.698;23.298;2022-12-18T07:29:56;96476.98;;;3.20;82.46
6096;BME280;25081;42.698;23.298;2022-12-18T07:32:07;96487.16;;;3.29;82.21
6096;BME280;25081;42.698;23.298;2022-12-18T07:34:17;96484.59;;;3.23;82.37
6096;BME280;25081;42.698;23.298;2022-12-18T07:36:28;96483.62;;;3.24;82.95
6096;BME280;25081;42.698;23.298;2022-12-18T07:38:38;96482.61;;;3.35;82.35
6096;BME280;25081;42.698;23.298;2022-12-18T07:40:48;96490.59;;;3.39;81.59
6096;BME280;25081;42.698;23.298;2022-12-18T07:42:59;96499.20;;;3.31;81.80
6096;BME280;25081;42.698;23.298;2022-12-18T07:45:10;96501.20;;;3.33;82.27
6096;BME280;25081;42.698;23.298;2022-12-18T07:47:21;96499.55;;;3.32;82.26
6096;BME280;25081;42.698;23.298;2022-12-18T07:49:32;96500.84;;;3.19;82.89
6096;BME280;25081;42.698;23.298;2022-12-18T07:51:42;96503.61;;;3.07;83.16
6096;BME280;25081;42.698;23.298;2022-12-18T07:53:53;96499.59;;;3.13;83.62
6096;BME280;25081;42.698;23.298;2022-12-18T07:56:05;96505.98;;;3.10;83.93
6096;BME280;25081;42.698;23.298;2022-12-18T07:58:15;96509.71;;;3.08;83.81
6096;BME280;25081;42.698;23.298;2022-12-18T08:00:25;96520.45;;;3.20;83.58
6096;BME280;25081;42.698;23.298;2022-12-18T08:02:36;96527.41;;;3.11;83.65
6096;BME280;25081;42.698;23.298;2022-12-18T08:04:46;96522.39;;;3.08;83.51
6096;BME280;25081;42.698;23.298;2022-12-18T08:06:56;96523.56;;;3.29;84.05
6096;BME280;25081;42.698;23.298;2022-12-18T08:09:07;96526.39;;;3.32;82.86
6096;BME280;25081;42.698;23.298;2022-12-18T08:11:18;96531.81;;;3.30;83.36
6096;BME280;25081;42.698;23.298;2022-12-18T08:13:28;96530.22;;;3.24;83.49
6096;BME280;25081;42.698;23.298;2022-12-18T08:15:39;96531.03;;;3.34;83.44
6096;BME280;25081;42.698;23.298;2022-12-18T08:17:49;96529.52;;;3.31;82.79
6096;BME280;25081;42.698;23.298;2022-12-18T08:19:59;96532.00;;;3.33;83.00
6096;BME280;25081;42.698;23.298;2022-12-18T08:22:10;96534.02;;;3.25;82.82
6096;BME280;25081;42.698;23.298;2022-12-18T08:24:20;96542.35;;;3.30;82.83
6096;BME280;25081;42.698;23.298;2022-12-18T08:26:31;96547.45;;;3.41;82.06
6096;BME280;25081;42.698;23.298;2022-12-18T08:28:41;96549.45;;;3.43;81.95
6096;BME280;25081;42.698;23.298;2022-12-18T08:30:53;96555.53;;;3.54;80.45
6096;BME280;25081;42.698;23.298;2022-12-18T08:33:04;96554.31;;;3.48;80.30
6096;BME280;25081;42.698;23.298;2022-12-18T08:35:14;96562.61;;;3.53;80.82
6096;BME280;25081;42.698;23.298;2022-12-18T08:37:25;96561.48;;;3.56;80.36
6096;BME280;25081;42.698;23.298;2022-12-18T08:39:35;96562.47;;;3.55;80.52
6096;BME280;25081;42.698;23.298;2022-12-18T08:41:46;96559.59;;;3.48;80.72
6096;BME280;25081;42.698;23.298;2022-12-18T08:43:56;96566.01;;;3.59;80.37
6096;BME280;25081;42.698;23.298;2022-12-18T08:46:25;96567.18;;;3.61;79.75
6096;BME280;25081;42.698;23.298;2022-12-18T08:48:34;96562.97;;;3.78;79.91
6096;BME280;25081;42.698;23.298;2022-12-18T08:50:54;96563.05;;;3.72;79.25
6096;BME280;25081;42.698;23.298;2022-12-18T08:53:04;96566.37;;;3.74;79.70
6096;BME280;25081;42.698;23.298;2022-12-18T08:55:15;96576.08;;;3.73;79.04
6096;BME280;25081;42.698;23.298;2022-12-18T08:57:25;96567.67;;;3.60;78.80
6096;BME280;25081;42.698;23.298;2022-12-18T08:59:35;96571.63;;;3.60;77.78
6096;BME280;25081;42.698;23.298;2022-12-18T09:01:46;96565.52;;;3.60;77.68
6096;BME280;25081;42.698;23.298;2022-12-18T09:03:57;96568.52;;;3.51;77.36
6096;BME280;25081;42.698;23.298;2022-12-18T09:06:08;96575.48;;;3.66;78.25
6096;BME280;25081;42.698;23.298;2022-12-18T09:08:18;96571.30;;;3.50;76.47
6096;BME280;25081;42.698;23.298;2022-12-18T09:10:28;96562.23;;;3.48;77.37
6096;BME280;25081;42.698;23.298;2022-12-18T09:12:39;96564.55;;;3.61;77.28
6096;BME280;25081;42.698;23.298;2022-12-18T09:14:50;96559.23;;;3.70;77.00
6096;BME280;25081;42.698;23.298;2022-12-18T09:17:00;96562.97;;;3.78;76.40
6096;BME280;25081;42.698;23.298;2022-12-18T09:19:11;96558.64;;;3.86;76.23
6096;BME280;25081;42.698;23.298;2022-12-18T09:21:22;96563.84;;;3.82;75.99
6096;BME280;25081;42.698;23.298;2022-12-18T09:23:32;96565.84;;;3.70;74.94
6096;BME280;25081;42.698;23.298;2022-12-18T09:25:42;96559.44;;;3.96;75.62
6096;BME280;25081;42.698;23.298;2022-12-18T09:27:53;96561.44;;;3.98;74.50
6096;BME280;25081;42.698;23.298;2022-12-18T09:30:05;96564.18;;;4.07;74.05
6096;BME280;25081;42.698;23.298;2022-12-18T09:32:16;96556.64;;;4.12;73.63
6096;BME280;25081;42.698;23.298;2022-12-18T09:34:26;96557.77;;;4.09;74.12
6096;BME280;25081;42.698;23.298;2022-12-18T09:36:37;96565.95;;;4.16;73.44
6096;BME280;25081;42.698;23.298;2022-12-18T09:38:47;96565.47;;;4.34;73.87
6096;BME280;25081;42.698;23.298;2022-12-18T09:40:59;96567.88;;;4.41;74.02
6096;BME280;25081;42.698;23.298;2022-12-18T09:43:12;96559.52;;;4.32;73.94
6096;BME280;25081;42.698;23.298;2022-12-18T09:45:22;96561.87;;;4.21;73.95
6096;BME280;25081;42.698;23.298;2022-12-18T09:47:35;96563.55;;;4.36;74.00
6096;BME280;25081;42.698;23.298;2022-12-18T09:49:47;96565.17;;;4.51;74.07
6096;BME280;25081;42.698;23.298;2022-12-18T09:51:57;96562.97;;;4.60;73.32
6096;BME280;25081;42.698;23.298;2022-12-18T09:54:10;96559.65;;;4.58;72.09
6096;BME280;25081;42.698;23.298;2022-12-18T09:56:18;96562.95;;;4.28;72.57
6096;BME280;25081;42.698;23.298;2022-12-18T09:58:30;96565.06;;;4.25;73.10
6096;BME280;25081;42.698;23.298;2022-12-18T10:00:39;96561.45;;;4.44;72.63
6096;BME280;25081;42.698;23.298;2022-12-18T10:02:51;96562.38;;;4.52;72.53
6096;BME280;25081;42.698;23.298;2022-12-18T10:05:12;96552.33;;;4.70;72.13
6096;BME280;25081;42.698;23.298;2022-12-18T10:07:23;96549.45;;;4.63;70.78
6096;BME280;25081;42.698;23.298;2022-12-18T10:09:36;96554.80;;;4.53;70.61
6096;BME280;25081;42.698;23.298;2022-12-18T10:11:46;96564.06;;;4.71;70.65
6096;BME280;25081;42.698;23.298;2022-12-18T10:13:56;96560.14;;;4.57;70.22
6096;BME280;25081;42.698;23.298;2022-12-18T10:16:12;96560.62;;;4.57;70.24
6096;BME280;25081;42.698;23.298;2022-12-18T10:18:27;96551.56;;;4.73;70.60
6096;BME280;25081;42.698;23.298;2022-12-18T10:20:37;96555.64;;;4.85;70.34
6096;BME280;25081;42.698;23.298;2022-12-18T10:22:52;96558.84;;;4.62;70.18
6096;BME280;25081;42.698;23.298;2022-12-18T10:25:03;96559.83;;;4.60;70.36
6096;BME280;25081;42.698;23.298;2022-12-18T10:27:14;96573.45;;;4.83;69.96
6096;BME280;25081;42.698;23.298;2022-12-18T10:29:25;96566.70;;;4.85;71.41
6096;BME280;25081;42.698;23.298;2022-12-18T10:31:36;96563.19;;;5.20;70.37
6096;BME280;25081;42.698;23.298;2022-12-18T10:33:46;96558.14;;;5.09;68.95
6096;BME280;25081;42.698;23.298;2022-12-18T10:35:57;96559.94;;;5.04;69.13
6096;BME280;25081;42.698;23.298;2022-12-18T10:38:20;96563.73;;;4.70;69.88
6096;BME280;25081;42.698;23.298;2022-12-18T10:40:18;96568.52;;;5.02;70.43
6096;BME280;25081;42.698;23.298;2022-12-18T10:42:29;96562.39;;;4.84;70.29
6096;BME280;25081;42.698;23.298;2022-12-18T10:44:39;96559.11;;;4.86;69.64
6096;BME280;25081;42.698;23.298;2022-12-18T10:46:50;96560.17;;;4.93;69.59
6096;BME280;25081;42.698;23.298;2022-12-18T10:49:00;96560.09;;;5.03;69.64
6096;BME280;25081;42.698;23.298;2022-12-18T10:51:10;96552.94;;;4.99;69.63
6096;BME280;25081;42.698;23.298;2022-12-18T10:53:22;96554.16;;;5.05;69.15
6096;BME280;25081;42.698;23.298;2022-12-18T10:55:33;96558.69;;;5.12;69.44
6096;BME280;25081;42.698;23.298;2022-12-18T10:57:43;96557.53;;;5.33;68.91
6096;BME280;25081;42.698;23.298;2022-12-18T10:59:54;96553.48;;;5.46;68.05
6096;BME280;25081;42.698;23.298;2022-12-18T11:02:07;96555.69;;;5.51;68.88
6096;BME280;25081;42.698;23.298;2022-12-18T11:04:22;96552.73;;;5.58;68.21
6096;BME280;25081;42.698;23.298;2022-12-18T11:06:35;96548.14;;;5.60;67.14
6096;BME280;25081;42.698;23.298;2022-12-18T11:08:56;96554.03;;;5.50;67.21
6096;BME280;25081;42.698;23.298;2022-12-18T11:10:56;96561.47;;;5.51;66.76
6096;BME280;25081;42.698;23.298;2022-12-18T11:13:16;96553.74;;;5.13;67.77
6096;BME280;25081;42.698;23.298;2022-12-18T11:15:26;96559.27;;;5.02;67.62
6096;BME280;25081;42.698;23.298;2022-12-18T11:17:36;96559.80;;;5.10;67.60
6096;BME280;25081;42.698;23.298;2022-12-18T11:19:47;96557.89;;;4.98;67.85
6096;BME280;25081;42.698;23.298;2022-12-18T11:21:57;96555.91;;;5.18;67.61
6096;BME280;25081;42.698;23.298;2022-12-18T11:24:15;96552.00;;;5.22;67.34
6096;BME280;25081;42.698;23.298;2022-12-18T11:26:26;96559.84;;;5.32;67.91
6096;BME280;25081;42.698;23.298;2022-12-18T11:28:38;96557.91;;;5.20;67.59
6096;BME280;25081;42.698;23.298;2022-12-18T11:30:48;96561.78;;;5.30;67.24
6096;BME280;25081;42.698;23.298;2022-12-18T11:33:00;96561.83;;;5.34;67.90
6096;BME280;25081;42.698;23.298;2022-12-18T11:35:15;96568.12;;;5.37;67.36
6096;BME280;25081;42.698;23.298;2022-12-18T11:37:25;96561.77;;;5.26;67.79
6096;BME280;25081;42.698;23.298;2022-12-18T11:39:36;96572.60;;;5.18;68.21
6096;BME280;25081;42.698;23.298;2022-12-18T11:41:48;96559.14;;;5.30;67.54
6096;BME280;25081;42.698;23.298;2022-12-18T11:44:18;96555.73;;;5.37;67.47
6096;BME280;25081;42.698;23.298;2022-12-18T11:46:28;96567.28;;;5.32;66.73
6096;BME280;25081;42.698;23.298;2022-12-18T11:48:38;96561.42;;;5.25;66.56